TimeEDT,TemperatureF,Dew PointF,Humidity,Sea Level PressureIn,VisibilityMPH,Wind Direction,Wind SpeedMPH,Gust SpeedMPH,PrecipitationIn,Events,Conditions,WindDirDegrees,DateUTC
12:56 AM,64.9,59.0,81,30.22,8.0,SSE,4.6,-,N/A,,Clear,160,2013-06-21 04:56:00
1:56 AM,61.0,57.9,90,30.22,7.0,SE,4.6,-,N/A,,Clear,140,2013-06-21 05:56:00
2:56 AM,61.0,56.8,86,30.22,8.0,SSE,3.5,-,N/A,,Clear,150,2013-06-21 06:56:00
3:56 AM,61.9,56.8,84,30.22,8.0,SSE,5.8,-,N/A,,Clear,160,2013-06-21 07:56:00
4:56 AM,63.9,57.9,81,30.22,8.0,Calm,Calm,-,N/A,,Clear,0,2013-06-21 08:56:00
5:56 AM,61.0,56.8,86,30.22,8.0,South,5.8,-,N/A,,Clear,170,2013-06-21 09:56:00
6:56 AM,61.0,56.8,86,30.22,6.0,SSE,3.5,-,N/A,,Clear,150,2013-06-21 10:56:00
7:56 AM,68.9,59.0,71,30.23,6.0,SSE,5.8,-,N/A,,Haze,160,2013-06-21 11:56:00
8:56 AM,72.0,61.0,68,30.23,6.0,SSE,5.8,-,N/A,,Haze,160,2013-06-21 12:56:00
9:56 AM,77.0,63.0,62,30.24,7.0,SSE,6.9,-,N/A,,Clear,150,2013-06-21 13:56:00
10:56 AM,79.9,59.0,49,30.23,7.0,South,5.8,-,N/A,,Clear,190,2013-06-21 14:56:00
11:56 AM,81.9,59.0,46,30.24,7.0,SE,6.9,-,N/A,,Clear,130,2013-06-21 15:56:00
12:56 PM,82.9,57.9,42,30.25,7.0,South,6.9,-,N/A,,Clear,180,2013-06-21 16:56:00
1:56 PM,83.8,56.8,40,30.22,6.0,South,9.2,-,N/A,,Haze,170,2013-06-21 17:56:00
2:56 PM,84.9,59.0,41,30.21,7.0,South,5.8,-,N/A,,Clear,190,2013-06-21 18:56:00
3:32 PM,84.2,60.8,45,30.22,2.0,SSW,6.9,-,N/A,,Haze,210,2013-06-21 19:32:00
3:41 PM,86.0,60.8,43,30.21,7.0,SSW,6.9,-,N/A,,Clear,200,2013-06-21 19:41:00
3:56 PM,86.0,61.0,43,30.19,7.0,South,6.9,-,N/A,,Clear,190,2013-06-21 19:56:00
4:56 PM,86.0,61.9,44,30.16,7.0,SSW,8.1,-,N/A,,Clear,210,2013-06-21 20:56:00
5:56 PM,84.9,61.9,46,30.16,7.0,South,5.8,-,N/A,,Partly Cloudy,180,2013-06-21 21:56:00
6:56 PM,83.8,61.9,47,30.16,7.0,South,3.5,-,N/A,,Clear,180,2013-06-21 22:56:00
7:56 PM,81.9,64.9,56,30.16,7.0,SSW,3.5,-,N/A,,Mostly Cloudy,200,2013-06-21 23:56:00
8:56 PM,79.0,65.8,64,30.16,6.0,South,3.5,-,N/A,,Haze,180,2013-06-22 00:56:00
9:56 PM,75.9,64.9,69,30.14,8.0,SSE,5.8,-,N/A,,Clear,160,2013-06-22 01:56:00
10:56 PM,75.9,63.9,66,30.14,8.0,South,6.9,-,N/A,,Clear,170,2013-06-22 02:56:00
11:56 PM,72.9,64.9,76,30.13,7.0,SSE,8.1,-,N/A,,Clear,150,2013-06-22 03:56:00